Time;durP1;ratioP1;P1;durP2;ratioP2;P2;SDS_P1;SDS_P2;PMS_P1;PMS_P2;Temp;Humidity;BMP_temperature;BMP_pressure;BME280_temperature;BME280_humidity;BME280_pressure;Samples;Min_cycle;Max_cycle;Signal;HPM_P1;HPM_P2
2023/12/31 00:00:32;;;;;;;;;2.00;2.00;;;;;;;;5098677;27;45423;-71
2023/12/31 00:02:57;;;;;;;;;1.00;1.00;;;;;;;;5097789;27;46001;-71
2023/12/31 00:05:22;;;;;;;;;2.00;2.00;;;;;;;;5097988;27;45246;-71
2023/12/31 00:07:48;;;;;;;;;1.00;1.00;;;;;;;;5098176;27;45246;-71
2023/12/31 00:10:13;;;;;;;;;1.00;1.00;;;;;;;;5097039;27;45403;-71
2023/12/31 00:12:38;;;;;;;;;1.00;1.00;;;;;;;;5097768;27;45391;-71
2023/12/31 00:15:04;;;;;;;;;2.00;1.67;;;;;;;;5098015;27;45701;-71
2023/12/31 00:17:30;;;;;;;;;1.33;1.33;;;;;;;;5098308;27;45423;-71
2023/12/31 00:19:55;;;;;;;;;2.00;1.67;;;;;;;;5098157;27;45413;-71
2023/12/31 00:22:21;;;;;;;;;1.00;1.00;;;;;;;;5097716;27;46070;-71
2023/12/31 00:24:46;;;;;;;;;2.00;1.00;;;;;;;;5097748;27;45394;-71
2023/12/31 00:27:11;;;;;;;;;1.00;1.00;;;;;;;;5097886;27;45911;-71
2023/12/31 00:29:37;;;;;;;;;1.33;1.33;;;;;;;;5098008;27;45452;-71
2023/12/31 00:32:02;;;;;;;;;1.33;1.00;;;;;;;;5097443;27;45954;-70
2023/12/31 00:34:27;;;;;;;;;1.00;1.00;;;;;;;;5097525;27;45436;-71
2023/12/31 00:36:53;;;;;;;;;3.00;2.00;;;;;;;;5097722;27;45301;-71
2023/12/31 00:39:18;;;;;;;;;1.33;1.33;;;;;;;;5097822;27;45282;-71
2023/12/31 00:41:44;;;;;;;;;1.00;1.00;;;;;;;;5097521;27;45479;-71
2023/12/31 00:44:09;;;;;;;;;2.00;2.00;;;;;;;;5097511;27;45397;-71
2023/12/31 00:46:34;;;;;;;;;2.00;2.00;;;;;;;;5097879;27;45514;-71
2023/12/31 00:49:00;;;;;;;;;1.00;1.00;;;;;;;;5097631;27;45417;-71
2023/12/31 00:51:25;;;;;;;;;3.00;2.00;;;;;;;;5097219;27;45446;-71
2023/12/31 00:53:50;;;;;;;;;2.00;2.00;;;;;;;;5097413;27;45255;-71
2023/12/31 00:56:16;;;;;;;;;2.00;2.00;;;;;;;;5097437;27;45312;-71
2023/12/31 00:58:42;;;;;;;;;2.00;2.00;;;;;;;;5097764;27;45398;-71
2023/12/31 01:01:08;;;;;;;;;2.33;2.33;;;;;;;;5100703;27;45999;-71
2023/12/31 01:03:33;;;;;;;;;2.00;2.00;;;;;;;;5101068;27;45510;-71
2023/12/31 01:06:05;;;;;;;;;3.00;3.00;;;;;;;;5100884;27;45555;-71
2023/12/31 01:08:31;;;;;;;;;3.00;2.00;;;;;;;;5100943;27;45492;-71
2023/12/31 01:10:56;;;;;;;;;3.50;3.00;;;;;;;;5100328;27;45923;-70
2023/12/31 01:13:21;;;;;;;;;3.67;3.00;;;;;;;;5100601;27;45462;-71
2023/12/31 01:15:47;;;;;;;;;3.00;2.00;;;;;;;;5100744;27;45226;-71
2023/12/31 01:18:12;;;;;;;;;2.00;2.00;;;;;;;;5100876;27;45517;-71
2023/12/31 01:20:37;;;;;;;;;2.00;2.00;;;;;;;;5100814;27;45256;-70
2023/12/31 01:23:03;;;;;;;;;3.00;3.00;;;;;;;;5099444;27;45472;-71
2023/12/31 01:25:28;;;;;;;;;2.33;2.33;;;;;;;;5100531;27;45429;-70
2023/12/31 01:27:55;;;;;;;;;3.00;2.00;;;;;;;;5100596;27;45384;-70
2023/12/31 01:30:21;;;;;;;;;3.33;3.00;;;;;;;;5100292;27;46213;-71
2023/12/31 01:32:48;;;;;;;;;2.50;2.00;;;;;;;;5099945;27;45416;-70
2023/12/31 01:35:13;;;;;;;;;3.00;3.00;;;;;;;;5100290;27;45575;-71
2023/12/31 01:37:38;;;;;;;;;4.00;3.00;;;;;;;;5100477;27;45319;-70
2023/12/31 01:40:04;;;;;;;;;2.67;2.67;;;;;;;;5100431;27;45573;-71
2023/12/31 01:42:29;;;;;;;;;3.00;3.00;;;;;;;;5100153;27;45470;-71
2023/12/31 01:44:55;;;;;;;;;4.00;3.00;;;;;;;;5100261;27;45403;-71
2023/12/31 01:47:21;;;;;;;;;3.00;3.00;;;;;;;;5100443;27;45475;-71
2023/12/31 01:49:47;;;;;;;;;2.00;2.00;;;;;;;;5100102;27;45343;-71
2023/12/31 01:52:13;;;;;;;;;3.00;3.00;;;;;;;;5099837;27;45404;-71
2023/12/31 01:54:38;;;;;;;;;4.00;4.00;;;;;;;;5100455;27;45516;-70
2023/12/31 01:57:04;;;;;;;;;4.00;3.00;;;;;;;;5100323;27;45258;-71
2023/12/31 01:59:29;;;;;;;;;3.00;2.67;;;;;;;;5099879;27;45487;-71
2023/12/31 02:01:55;;;;;;;;;3.33;3.00;;;;;;;;5099870;27;45464;-71
2023/12/31 02:04:23;;;;;;;;;3.00;3.00;;;;;;;;5099981;27;45329;-71
2023/12/31 02:06:48;;;;;;;;;3.00;3.00;;;;;;;;5100051;27;45483;-71
2023/12/31 02:09:14;;;;;;;;;3.00;3.00;;;;;;;;5099431;27;45927;-71
2023/12/31 02:11:40;;;;;;;;;2.00;2.00;;;;;;;;5097656;27;45474;-71
2023/12/31 02:14:05;;;;;;;;;3.67;3.67;;;;;;;;5099738;27;45559;-71
2023/12/31 02:16:31;;;;;;;;;4.25;3.25;;;;;;;;5100016;27;45429;-71
2023/12/31 02:18:56;;;;;;;;;4.00;3.00;;;;;;;;5099531;27;45295;-71
2023/12/31 02:21:21;;;;;;;;;4.00;3.67;;;;;;;;5099626;27;45241;-71
2023/12/31 02:23:47;;;;;;;;;5.67;4.00;;;;;;;;5099714;27;45623;-71
2023/12/31 02:26:13;;;;;;;;;3.00;3.00;;;;;;;;5099818;27;45305;-71
2023/12/31 02:28:39;;;;;;;;;3.00;3.00;;;;;;;;5099550;27;45962;-71
2023/12/31 02:31:04;;;;;;;;;3.00;2.75;;;;;;;;5099231;27;45369;-71
2023/12/31 02:33:30;;;;;;;;;4.33;3.33;;;;;;;;5098129;27;45442;-71
2023/12/31 02:35:55;;;;;;;;;2.00;2.00;;;;;;;;5099741;27;45393;-71
2023/12/31 02:38:21;;;;;;;;;3.67;3.00;;;;;;;;5099255;27;45417;-71
2023/12/31 02:40:46;;;;;;;;;3.00;2.67;;;;;;;;5099201;27;45271;-71
2023/12/31 02:43:12;;;;;;;;;4.00;3.00;;;;;;;;5099471;27;45701;-71
2023/12/31 02:45:37;;;;;;;;;3.00;3.00;;;;;;;;5099521;27;45450;-71
2023/12/31 02:48:03;;;;;;;;;3.00;2.75;;;;;;;;5098977;27;46018;-70
2023/12/31 02:50:31;;;;;;;;;3.00;3.00;;;;;;;;5099063;27;45275;-70
2023/12/31 02:52:56;;;;;;;;;2.00;2.00;;;;;;;;5098941;27;45384;-71
2023/12/31 02:55:21;;;;;;;;;2.00;2.00;;;;;;;;5099056;27;45349;-71
2023/12/31 02:57:47;;;;;;;;;3.67;3.67;;;;;;;;5098721;27;46188;-70
2023/12/31 03:00:13;;;;;;;;;2.00;2.00;;;;;;;;5099181;27;45201;-70
2023/12/31 03:02:40;;;;;;;;;2.33;2.33;;;;;;;;5099060;27;45534;-70
2023/12/31 03:05:07;;;;;;;;;3.00;3.00;;;;;;;;5099084;27;45470;-73
2023/12/31 03:07:33;;;;;;;;;2.67;2.33;;;;;;;;5098602;27;46529;-70
2023/12/31 03:09:58;;;;;;;;;2.00;1.00;;;;;;;;5098509;27;45402;-71
2023/12/31 03:12:23;;;;;;;;;3.00;2.33;;;;;;;;5098865;27;45409;-71
2023/12/31 03:14:49;;;;;;;;;3.67;3.00;;;;;;;;5098909;27;45545;-71
2023/12/31 03:17:14;;;;;;;;;3.33;3.00;;;;;;;;5098911;27;45421;-70
2023/12/31 03:19:39;;;;;;;;;3.50;3.25;;;;;;;;5099120;27;45482;-71
2023/12/31 03:22:05;;;;;;;;;3.00;2.00;;;;;;;;5098445;27;45469;-70
2023/12/31 03:24:30;;;;;;;;;1.00;1.00;;;;;;;;5098700;27;45164;-71
2023/12/31 03:26:56;;;;;;;;;2.00;2.00;;;;;;;;5098371;27;45292;-71
2023/12/31 03:29:21;;;;;;;;;2.00;2.00;;;;;;;;5098459;27;45296;-71
2023/12/31 03:31:47;;;;;;;;;3.00;2.00;;;;;;;;5098503;27;45490;-71
2023/12/31 03:34:12;;;;;;;;;2.75;2.75;;;;;;;;5098978;27;45562;-71
2023/12/31 03:36:37;;;;;;;;;3.00;3.00;;;;;;;;5098307;27;45440;-71
2023/12/31 03:39:03;;;;;;;;;2.00;1.75;;;;;;;;5096920;27;45482;-71
2023/12/31 03:41:28;;;;;;;;;2.50;2.50;;;;;;;;5098566;27;45457;-70
2023/12/31 03:43:54;;;;;;;;;3.25;3.00;;;;;;;;5098473;27;45484;-71
2023/12/31 03:46:20;;;;;;;;;2.00;2.00;;;;;;;;5098281;27;45442;-70
2023/12/31 03:48:45;;;;;;;;;3.00;3.00;;;;;;;;5098514;27;45547;-70
2023/12/31 03:51:11;;;;;;;;;3.00;3.00;;;;;;;;5097011;27;45459;-71
2023/12/31 03:53:36;;;;;;;;;1.67;1.67;;;;;;;;5098369;27;45521;-71
2023/12/31 03:56:02;;;;;;;;;2.33;2.00;;;;;;;;5098345;27;46089;-70
2023/12/31 03:58:27;;;;;;;;;2.00;1.00;;;;;;;;5097978;27;45481;-70
2023/12/31 04:00:52;;;;;;;;;3.00;2.00;;;;;;;;5098240;27;45369;-71
2023/12/31 04:03:18;;;;;;;;;3.33;2.00;;;;;;;;5098170;27;45559;-71
2023/12/31 04:05:43;;;;;;;;;2.00;1.00;;;;;;;;5098276;27;45915;-70
2023/12/31 04:08:08;;;;;;;;;2.00;1.00;;;;;;;;5097942;27;45349;-70
2023/12/31 04:10:34;;;;;;;;;1.67;1.00;;;;;;;;5098111;27;45245;-71
2023/12/31 04:12:59;;;;;;;;;4.00;1.00;;;;;;;;5098072;27;45246;-70
2023/12/31 04:15:25;;;;;;;;;3.33;0.67;;;;;;;;5097927;27;45286;-71
2023/12/31 04:17:51;;;;;;;;;2.33;2.00;;;;;;;;5097966;27;45456;-71
2023/12/31 04:20:16;;;;;;;;;3.33;1.00;;;;;;;;5098347;27;45446;-71
2023/12/31 04:22:42;;;;;;;;;3.00;1.00;;;;;;;;5098121;27;45194;-71
2023/12/31 04:25:07;;;;;;;;;1.33;0.00;;;;;;;;5097689;27;45445;-71
2023/12/31 04:27:35;;;;;;;;;2.00;1.33;;;;;;;;5097766;27;45251;-71
2023/12/31 04:30:01;;;;;;;;;2.00;1.00;;;;;;;;5097779;27;45375;-71
2023/12/31 04:32:26;;;;;;;;;3.67;1.00;;;;;;;;5097624;27;45322;-71
2023/12/31 04:34:51;;;;;;;;;3.67;1.00;;;;;;;;5098963;27;45451;-71
2023/12/31 04:37:17;;;;;;;;;1.00;1.00;;;;;;;;5101627;27;45373;-71
2023/12/31 04:39:42;;;;;;;;;5.33;2.00;;;;;;;;5100010;27;45533;-71
2023/12/31 04:42:07;;;;;;;;;2.00;1.00;;;;;;;;5101484;27;45357;-70
2023/12/31 04:44:33;;;;;;;;;3.00;2.00;;;;;;;;5101033;27;45424;-71
2023/12/31 04:46:58;;;;;;;;;5.67;1.33;;;;;;;;5101077;27;45568;-70
2023/12/31 04:49:23;;;;;;;;;5.00;2.00;;;;;;;;5101090;27;45486;-70
2023/12/31 04:51:49;;;;;;;;;4.67;2.00;;;;;;;;5101413;27;45233;-71
2023/12/31 04:54:14;;;;;;;;;3.00;1.33;;;;;;;;5100618;27;46094;-71
2023/12/31 04:56:40;;;;;;;;;3.33;2.00;;;;;;;;5100984;27;45491;-71
2023/12/31 04:59:05;;;;;;;;;4.00;2.00;;;;;;;;5101253;27;45612;-71
2023/12/31 05:01:33;;;;;;;;;0.67;0.00;;;;;;;;5101262;27;45238;-70
2023/12/31 05:03:59;;;;;;;;;2.33;0.00;;;;;;;;5100601;27;46003;-71
2023/12/31 05:06:25;;;;;;;;;1.00;1.00;;;;;;;;5100684;27;45391;-71
2023/12/31 05:08:50;;;;;;;;;1.00;0.00;;;;;;;;5101084;27;45300;-71
2023/12/31 05:11:16;;;;;;;;;1.00;0.00;;;;;;;;5101103;27;45344;-70
2023/12/31 05:13:42;;;;;;;;;2.33;0.33;;;;;;;;5100692;27;45399;-71
2023/12/31 05:16:09;;;;;;;;;1.33;1.00;;;;;;;;5100765;27;45288;-70
2023/12/31 05:18:34;;;;;;;;;1.00;0.00;;;;;;;;5100716;27;45317;-71
2023/12/31 05:21:01;;;;;;;;;0.00;0.00;;;;;;;;5100745;27;45533;-71
2023/12/31 05:23:27;;;;;;;;;0.00;0.00;;;;;;;;5100502;27;45334;-71
2023/12/31 05:25:52;;;;;;;;;0.00;0.00;;;;;;;;5100402;27;45368;-71
2023/12/31 05:28:18;;;;;;;;;0.00;0.00;;;;;;;;5100913;27;45873;-71
2023/12/31 05:30:43;;;;;;;;;0.00;0.00;;;;;;;;5100746;27;45211;-70
2023/12/31 05:33:12;;;;;;;;;0.67;0.00;;;;;;;;5100336;27;45560;-71
2023/12/31 05:35:37;;;;;;;;;1.00;0.00;;;;;;;;5100525;27;45456;-70
2023/12/31 05:38:03;;;;;;;;;0.00;0.00;;;;;;;;5100485;27;45301;-71
2023/12/31 05:40:28;;;;;;;;;2.00;0.00;;;;;;;;5100565;27;45422;-70
2023/12/31 05:42:53;;;;;;;;;0.00;0.00;;;;;;;;5100285;27;45296;-71
2023/12/31 05:45:19;;;;;;;;;1.00;0.00;;;;;;;;5099976;27;45483;-70
2023/12/31 05:47:47;;;;;;;;;0.00;0.00;;;;;;;;5099733;27;45274;-71
2023/12/31 05:50:13;;;;;;;;;0.67;0.00;;;;;;;;5100367;27;45325;-71
2023/12/31 05:52:39;;;;;;;;;0.00;0.00;;;;;;;;5099925;27;45441;-71
2023/12/31 05:55:04;;;;;;;;;0.33;0.00;;;;;;;;5099875;27;45470;-71
2023/12/31 05:57:30;;;;;;;;;0.00;0.00;;;;;;;;5100291;27;45493;-71
2023/12/31 05:59:55;;;;;;;;;1.00;0.00;;;;;;;;5100511;27;45218;-71
2023/12/31 06:02:20;;;;;;;;;1.00;0.00;;;;;;;;5100186;27;45864;-71
2023/12/31 06:04:46;;;;;;;;;0.00;0.00;;;;;;;;5100020;27;45377;-71
2023/12/31 06:07:11;;;;;;;;;1.00;0.00;;;;;;;;5100315;27;45488;-71
2023/12/31 06:09:36;;;;;;;;;3.33;0.00;;;;;;;;5098863;27;45567;-71
2023/12/31 06:12:02;;;;;;;;;2.00;0.00;;;;;;;;5099829;27;46180;-71
2023/12/31 06:14:27;;;;;;;;;0.33;0.00;;;;;;;;5099870;27;45392;-71
2023/12/31 06:16:53;;;;;;;;;2.00;0.00;;;;;;;;5100490;27;45483;-71
2023/12/31 06:19:18;;;;;;;;;0.00;0.00;;;;;;;;5100221;27;45494;-71
2023/12/31 06:21:43;;;;;;;;;0.67;0.67;;;;;;;;5099684;27;45458;-71
2023/12/31 06:24:09;;;;;;;;;0.00;0.00;;;;;;;;5099501;27;45230;-71
2023/12/31 06:26:34;;;;;;;;;1.00;0.00;;;;;;;;5099802;27;45631;-71
2023/12/31 06:28:59;;;;;;;;;0.00;0.00;;;;;;;;5099845;27;45427;-71
2023/12/31 06:31:25;;;;;;;;;1.00;0.00;;;;;;;;5099820;27;45475;-71
2023/12/31 06:33:51;;;;;;;;;9.00;9.00;;;;;;;;5099537;27;45302;-71
2023/12/31 06:36:17;;;;;;;;;1.00;0.00;;;;;;;;5099675;27;45294;-71
2023/12/31 06:38:42;;;;;;;;;0.00;0.00;;;;;;;;5099600;27;45429;-70
2023/12/31 06:41:11;;;;;;;;;0.00;0.00;;;;;;;;5099321;27;45496;-71
2023/12/31 06:43:36;;;;;;;;;1.00;0.00;;;;;;;;5099567;27;45437;-71
2023/12/31 06:46:02;;;;;;;;;1.67;1.00;;;;;;;;5099425;27;45861;-71
2023/12/31 06:48:27;;;;;;;;;1.00;1.00;;;;;;;;5099546;27;45360;-71
2023/12/31 06:50:53;;;;;;;;;2.25;2.00;;;;;;;;5099278;27;45455;-71
2023/12/31 06:53:19;;;;;;;;;5.25;4.50;;;;;;;;5098837;27;45500;-71
2023/12/31 06:55:44;;;;;;;;;4.00;3.00;;;;;;;;5099191;27;45369;-71
2023/12/31 06:58:09;;;;;;;;;1.00;1.00;;;;;;;;5098785;27;45338;-71
2023/12/31 07:00:35;;;;;;;;;4.50;2.25;;;;;;;;5099087;27;45673;-71
2023/12/31 07:03:01;;;;;;;;;1.00;0.00;;;;;;;;5099203;27;45448;-71
2023/12/31 07:05:26;;;;;;;;;1.00;1.00;;;;;;;;5099578;27;45349;-71
2023/12/31 07:07:51;;;;;;;;;1.00;0.67;;;;;;;;5099365;27;45229;-70
2023/12/31 07:10:17;;;;;;;;;0.00;0.00;;;;;;;;5098871;27;46135;-71
2023/12/31 07:12:42;;;;;;;;;0.00;0.00;;;;;;;;5098938;27;45522;-71
2023/12/31 07:15:09;;;;;;;;;4.00;2.00;;;;;;;;5099059;27;45341;-71
2023/12/31 07:17:35;;;;;;;;;0.00;0.00;;;;;;;;5098988;27;45400;-71
2023/12/31 07:20:02;;;;;;;;;1.00;0.00;;;;;;;;5098548;27;46404;-71
2023/12/31 07:22:28;;;;;;;;;0.00;0.00;;;;;;;;5098972;27;45231;-70
2023/12/31 07:24:53;;;;;;;;;1.00;0.33;;;;;;;;5097469;27;45506;-71
2023/12/31 07:27:18;;;;;;;;;0.00;0.00;;;;;;;;5099111;27;46095;-71
2023/12/31 07:29:44;;;;;;;;;0.00;0.00;;;;;;;;5098869;27;45943;-71
2023/12/31 07:32:09;;;;;;;;;0.00;0.00;;;;;;;;5098663;27;45590;-71
2023/12/31 07:34:35;;;;;;;;;1.00;0.00;;;;;;;;5098825;27;45379;-71
2023/12/31 07:37:00;;;;;;;;;1.00;0.00;;;;;;;;5099007;27;45363;-71
2023/12/31 07:39:26;;;;;;;;;0.00;0.00;;;;;;;;5098772;27;45807;-71
2023/12/31 07:41:51;;;;;;;;;0.67;0.67;;;;;;;;5098413;27;45483;-71
2023/12/31 07:44:18;;;;;;;;;0.00;0.00;;;;;;;;5098569;27;45302;-71
2023/12/31 07:46:43;;;;;;;;;0.00;0.00;;;;;;;;5098862;27;45360;-71
2023/12/31 07:49:09;;;;;;;;;1.00;1.00;;;;;;;;5098238;27;45431;-71
2023/12/31 07:51:34;;;;;;;;;0.33;0.00;;;;;;;;5098390;27;45360;-71
2023/12/31 07:53:59;;;;;;;;;9.50;6.00;;;;;;;;5098611;27;45380;-71
2023/12/31 07:56:25;;;;;;;;;6.50;5.25;;;;;;;;5098619;27;45374;-70
2023/12/31 07:58:50;;;;;;;;;1.00;1.00;;;;;;;;5098235;27;45964;-70
2023/12/31 08:01:15;;;;;;;;;3.25;2.00;;;;;;;;5098535;27;45311;-70
2023/12/31 08:03:41;;;;;;;;;1.75;1.25;;;;;;;;5098779;27;45364;-71
2023/12/31 08:06:06;;;;;;;;;0.00;0.00;;;;;;;;5098564;27;45420;-71
2023/12/31 08:08:31;;;;;;;;;4.00;3.00;;;;;;;;5097261;27;45447;-71
2023/12/31 08:10:59;;;;;;;;;8.25;6.00;;;;;;;;5097976;27;45457;-71
2023/12/31 08:13:25;;;;;;;;;27.25;24.00;;;;;;;;5096543;27;45396;-70
2023/12/31 08:15:50;;;;;;;;;5.75;3.75;;;;;;;;5098164;27;45302;-71
2023/12/31 08:18:15;;;;;;;;;4.00;2.50;;;;;;;;5097850;27;45604;-71
2023/12/31 08:20:42;;;;;;;;;3.00;2.75;;;;;;;;5098091;27;45230;-70
2023/12/31 08:23:07;;;;;;;;;2.00;1.00;;;;;;;;5097908;27;45230;-71
2023/12/31 08:25:33;;;;;;;;;1.75;1.00;;;;;;;;5098071;27;45332;-71
2023/12/31 08:27:58;;;;;;;;;0.33;0.33;;;;;;;;5098164;27;46134;-71
2023/12/31 08:30:23;;;;;;;;;0.50;0.50;;;;;;;;5097861;27;45433;-71
2023/12/31 08:32:49;;;;;;;;;1.00;1.00;;;;;;;;5097799;27;45288;-70
2023/12/31 08:35:14;;;;;;;;;1.00;1.00;;;;;;;;5098012;27;45507;-70
2023/12/31 08:37:39;;;;;;;;;1.50;1.00;;;;;;;;5097493;27;45502;-71
2023/12/31 08:40:05;;;;;;;;;2.25;1.00;;;;;;;;5097625;27;45304;-71
2023/12/31 08:42:31;;;;;;;;;3.50;1.75;;;;;;;;5098005;27;45287;-70
2023/12/31 08:44:57;;;;;;;;;0.00;0.00;;;;;;;;5097898;27;45285;-70
2023/12/31 08:47:22;;;;;;;;;1.00;1.00;;;;;;;;5097299;27;45468;-71
2023/12/31 08:49:48;;;;;;;;;0.00;0.00;;;;;;;;5097457;27;45404;-70
2023/12/31 08:52:13;;;;;;;;;1.67;1.00;;;;;;;;5097389;27;45547;-71
2023/12/31 08:54:39;;;;;;;;;0.00;0.00;;;;;;;;5097992;27;45417;-71
2023/12/31 08:57:04;;;;;;;;;1.50;1.00;;;;;;;;5097387;27;45349;-70
2023/12/31 08:59:30;;;;;;;;;2.00;1.00;;;;;;;;5096329;27;45332;-71
2023/12/31 09:01:55;;;;;;;;;2.25;2.25;;;;;;;;5097590;27;45753;-70
2023/12/31 09:04:22;;;;;;;;;4.50;2.00;;;;;;;;5097476;27;45507;-71
2023/12/31 09:06:48;;;;;;;;;2.25;2.25;;;;;;;;5096980;27;46094;-71
2023/12/31 09:09:14;;;;;;;;;5.00;5.00;;;;;;;;5097153;27;45510;-71
2023/12/31 09:11:39;;;;;;;;;14.50;10.00;;;;;;;;5097290;27;45447;-71
2023/12/31 09:14:05;;;;;;;;;6.75;4.00;;;;;;;;5097560;27;45471;-71
2023/12/31 09:16:30;;;;;;;;;2.00;2.00;;;;;;;;5097365;27;45921;-70
2023/12/31 09:18:55;;;;;;;;;3.25;2.00;;;;;;;;5097221;27;45424;-71
2023/12/31 09:21:21;;;;;;;;;3.00;2.00;;;;;;;;5099407;27;45622;-70
2023/12/31 09:23:46;;;;;;;;;5.50;4.75;;;;;;;;5100768;27;45404;-71
2023/12/31 09:26:12;;;;;;;;;2.00;1.00;;;;;;;;5100519;27;45421;-71
2023/12/31 09:28:39;;;;;;;;;2.50;2.50;;;;;;;;5100681;27;45473;-71
2023/12/31 09:31:05;;;;;;;;;3.75;3.00;;;;;;;;5100924;27;45748;-70
2023/12/31 09:33:30;;;;;;;;;7.75;5.25;;;;;;;;5099293;27;45345;-70
2023/12/31 09:35:56;;;;;;;;;6.00;4.25;;;;;;;;5100276;27;45460;-71
2023/12/31 09:38:21;;;;;;;;;7.25;5.00;;;;;;;;5100181;27;45487;-71
2023/12/31 09:40:47;;;;;;;;;4.25;4.00;;;;;;;;5099116;27;45228;-71
2023/12/31 09:43:17;;;;;;;;;3.00;3.00;;;;;;;;5100311;27;45400;-71
2023/12/31 09:45:42;;;;;;;;;2.00;2.00;;;;;;;;5100201;27;45522;-71
2023/12/31 09:48:07;;;;;;;;;4.75;4.00;;;;;;;;5098819;27;45579;-71
2023/12/31 09:50:34;;;;;;;;;4.50;3.75;;;;;;;;5100601;27;45732;-71
2023/12/31 09:53:02;;;;;;;;;3.50;3.25;;;;;;;;5100356;27;45213;-70
2023/12/31 09:55:28;;;;;;;;;1.33;1.00;;;;;;;;5099629;27;45248;-71
2023/12/31 09:57:53;;;;;;;;;3.00;2.00;;;;;;;;5098474;27;45257;-71
2023/12/31 10:00:19;;;;;;;;;2.25;2.00;;;;;;;;5098768;27;45613;-71
2023/12/31 10:02:45;;;;;;;;;4.00;3.00;;;;;;;;5098652;27;45567;-71
2023/12/31 10:05:11;;;;;;;;;5.00;4.25;;;;;;;;5097930;27;45423;-73
2023/12/31 10:07:36;;;;;;;;;8.75;7.75;;;;;;;;5099710;27;45433;-72
2023/12/31 10:10:03;;;;;;;;;6.00;5.00;;;;;;;;5098158;27;45354;-72
2023/12/31 10:12:29;;;;;;;;;5.50;4.00;;;;;;;;5099988;27;45493;-78
2023/12/31 10:14:55;;;;;;;;;6.25;4.75;;;;;;;;5099427;27;45541;-72
2023/12/31 10:17:20;;;;;;;;;15.50;11.00;;;;;;;;5099283;27;45541;-72
2023/12/31 10:19:45;;;;;;;;;7.50;7.00;;;;;;;;5099580;27;45466;-72
2023/12/31 10:22:12;;;;;;;;;3.50;3.00;;;;;;;;5099986;27;45209;-72
2023/12/31 10:24:37;;;;;;;;;1.33;1.00;;;;;;;;5099610;27;45345;-72
2023/12/31 10:27:04;;;;;;;;;4.50;4.50;;;;;;;;5099471;27;45359;-72
2023/12/31 10:29:31;;;;;;;;;2.75;2.75;;;;;;;;5099581;27;45408;-72
2023/12/31 10:31:57;;;;;;;;;6.75;5.25;;;;;;;;5098617;27;45425;-73
2023/12/31 10:34:22;;;;;;;;;12.25;9.25;;;;;;;;5098815;27;45276;-72
2023/12/31 10:36:47;;;;;;;;;7.00;5.00;;;;;;;;5099365;27;45502;-72
2023/12/31 10:39:27;;;;;;;;;5.25;3.50;;;;;;;;5099470;27;45467;-72
2023/12/31 10:41:56;;;;;;;;;4.25;3.00;;;;;;;;5099588;27;45280;-72
2023/12/31 10:44:22;;;;;;;;;8.00;6.50;;;;;;;;5098787;27;45356;-72
2023/12/31 10:46:50;;;;;;;;;4.00;4.00;;;;;;;;5098659;27;45600;-73
2023/12/31 10:49:16;;;;;;;;;2.50;2.00;;;;;;;;5098704;27;45419;-73
2023/12/31 10:51:44;;;;;;;;;5.25;4.00;;;;;;;;5098782;27;45520;-73
2023/12/31 10:54:15;;;;;;;;;7.50;7.00;;;;;;;;5098643;27;45514;-73
2023/12/31 10:56:41;;;;;;;;;6.75;4.50;;;;;;;;5099382;27;45390;-74
2023/12/31 10:59:07;;;;;;;;;2.00;2.00;;;;;;;;5099278;27;45381;-73
2023/12/31 11:01:33;;;;;;;;;2.50;2.25;;;;;;;;5099000;27;45263;-72
2023/12/31 11:04:00;;;;;;;;;4.50;3.50;;;;;;;;5098695;27;45329;-72
2023/12/31 11:06:26;;;;;;;;;4.25;4.00;;;;;;;;5098671;27;45445;-73
2023/12/31 11:08:51;;;;;;;;;1.00;1.00;;;;;;;;5098755;27;45285;-73
2023/12/31 11:11:18;;;;;;;;;7.00;7.00;;;;;;;;5098823;27;45478;-73
2023/12/31 11:13:46;;;;;;;;;4.00;3.00;;;;;;;;5098133;27;45430;-73
2023/12/31 11:16:35;;;;;;;;;1.00;0.33;;;;;;;;5098478;27;45517;-73
2023/12/31 11:19:19;;;;;;;;;2.67;1.00;;;;;;;;5075578;27;45429;-73
2023/12/31 11:22:01;;;;;;;;;1.00;1.00;;;;;;;;5098925;27;45464;-73
2023/12/31 11:24:26;;;;;;;;;1.00;0.00;;;;;;;;5098337;27;45462;-73
2023/12/31 11:27:04;;;;;;;;;3.00;2.00;;;;;;;;5098408;27;45223;-73
2023/12/31 11:29:31;;;;;;;;;6.00;4.75;;;;;;;;5098430;27;45397;-73
2023/12/31 11:31:56;;;;;;;;;13.25;12.00;;;;;;;;5098596;27;45240;-73
2023/12/31 11:34:21;;;;;;;;;15.50;14.00;;;;;;;;5098026;27;45332;-73
2023/12/31 11:36:47;;;;;;;;;14.50;12.75;;;;;;;;5098067;27;45423;-72
2023/12/31 11:39:16;;;;;;;;;7.75;6.25;;;;;;;;5098563;27;45515;-73
2023/12/31 11:41:45;;;;;;;;;1.00;1.00;;;;;;;;5098871;27;45428;-73
2023/12/31 11:44:30;;;;;;;;;0.00;0.00;;;;;;;;5098260;27;45440;-73
2023/12/31 11:46:58;;;;;;;;;0.33;0.00;;;;;;;;5097854;27;45487;-74
2023/12/31 11:49:25;;;;;;;;;0.00;0.00;;;;;;;;5097755;27;45484;-74
2023/12/31 11:52:01;;;;;;;;;2.25;1.25;;;;;;;;5098115;27;45531;-73
2023/12/31 11:54:39;;;;;;;;;3.00;3.00;;;;;;;;5097503;27;45223;-73
2023/12/31 11:57:06;;;;;;;;;3.50;2.50;;;;;;;;5098132;27;45409;-73
2023/12/31 11:59:35;;;;;;;;;14.00;13.50;;;;;;;;5098066;27;45476;-75
2023/12/31 12:02:01;;;;;;;;;1.75;1.25;;;;;;;;5098298;27;45234;-73
2023/12/31 12:04:27;;;;;;;;;7.75;6.75;;;;;;;;5098136;27;45276;-73
2023/12/31 12:06:52;;;;;;;;;3.00;2.00;;;;;;;;5097810;27;45549;-73
2023/12/31 12:09:22;;;;;;;;;1.50;1.50;;;;;;;;5098161;27;45176;-73
2023/12/31 12:11:47;;;;;;;;;0.00;0.00;;;;;;;;5098192;27;45503;-73
2023/12/31 12:14:13;;;;;;;;;0.00;0.00;;;;;;;;5098192;27;45448;-73
2023/12/31 12:16:40;;;;;;;;;1.00;1.00;;;;;;;;5097995;27;45454;-73
2023/12/31 12:19:05;;;;;;;;;3.25;2.50;;;;;;;;5097910;27;45433;-73
2023/12/31 12:21:30;;;;;;;;;11.25;10.00;;;;;;;;5098055;27;45367;-73
2023/12/31 12:23:56;;;;;;;;;4.00;3.00;;;;;;;;5097817;27;46034;-73
2023/12/31 12:26:22;;;;;;;;;2.67;2.67;;;;;;;;5097699;27;45352;-73
2023/12/31 12:28:48;;;;;;;;;1.00;1.00;;;;;;;;5097616;27;45456;-73
2023/12/31 12:31:15;;;;;;;;;0.00;0.00;;;;;;;;5098309;27;45457;-73
2023/12/31 12:33:42;;;;;;;;;1.00;1.00;;;;;;;;5097316;27;45328;-73
2023/12/31 12:36:07;;;;;;;;;4.00;3.33;;;;;;;;5097499;27;45381;-73
2023/12/31 12:38:33;;;;;;;;;1.00;1.00;;;;;;;;5097620;27;45869;-73
2023/12/31 12:41:02;;;;;;;;;0.67;0.00;;;;;;;;5097797;27;45479;-73
2023/12/31 12:43:31;;;;;;;;;1.00;0.00;;;;;;;;5097529;27;45727;-74
2023/12/31 12:46:03;;;;;;;;;0.00;0.00;;;;;;;;5097194;27;45465;-73
2023/12/31 12:48:29;;;;;;;;;1.00;0.00;;;;;;;;5097422;27;45665;-73
2023/12/31 12:50:54;;;;;;;;;0.33;0.00;;;;;;;;5097715;27;45482;-73
2023/12/31 12:53:19;;;;;;;;;0.00;0.00;;;;;;;;5097213;27;45400;-74
2023/12/31 12:55:45;;;;;;;;;0.00;0.00;;;;;;;;5099143;27;45207;-73
2023/12/31 12:58:11;;;;;;;;;0.33;0.33;;;;;;;;5101148;27;45407;-74
2023/12/31 13:00:36;;;;;;;;;0.00;0.00;;;;;;;;5101300;27;45420;-73
2023/12/31 13:03:01;;;;;;;;;4.00;3.00;;;;;;;;5100490;27;45428;-73
2023/12/31 13:05:27;;;;;;;;;1.00;1.00;;;;;;;;5100819;27;45533;-73
2023/12/31 13:07:52;;;;;;;;;1.33;0.00;;;;;;;;5101167;27;45403;-73
2023/12/31 13:10:18;;;;;;;;;2.00;1.00;;;;;;;;5101349;27;45526;-73
2023/12/31 13:12:43;;;;;;;;;2.33;2.33;;;;;;;;5100386;27;45852;-73
2023/12/31 13:15:09;;;;;;;;;2.00;1.00;;;;;;;;5100849;27;45771;-73
2023/12/31 13:17:34;;;;;;;;;2.33;1.00;;;;;;;;5100870;27;45460;-74
2023/12/31 13:20:00;;;;;;;;;3.00;2.00;;;;;;;;5100800;27;45559;-73
2023/12/31 13:22:25;;;;;;;;;2.33;1.67;;;;;;;;5100084;27;45341;-79
2023/12/31 13:24:50;;;;;;;;;2.00;2.00;;;;;;;;5081994;27;45302;-73
2023/12/31 13:27:16;;;;;;;;;0.00;0.00;;;;;;;;5100779;27;45335;-73
2023/12/31 13:29:42;;;;;;;;;3.67;2.00;;;;;;;;5100654;27;45283;-73
2023/12/31 13:32:09;;;;;;;;;4.00;1.00;;;;;;;;5100329;27;45457;-73
2023/12/31 13:34:34;;;;;;;;;2.33;2.33;;;;;;;;5100439;27;45303;-75
2023/12/31 13:37:00;;;;;;;;;2.67;2.00;;;;;;;;5100521;27;45475;-73
2023/12/31 13:39:25;;;;;;;;;3.67;2.00;;;;;;;;5100547;27;45425;-73
2023/12/31 13:41:50;;;;;;;;;3.75;3.75;;;;;;;;5100032;27;45937;-73
2023/12/31 13:44:16;;;;;;;;;2.00;2.00;;;;;;;;5100484;27;45259;-73
2023/12/31 13:46:41;;;;;;;;;9.50;7.25;;;;;;;;5100183;27;45846;-73
2023/12/31 13:49:07;;;;;;;;;5.67;4.00;;;;;;;;5100443;27;45429;-73
2023/12/31 13:51:32;;;;;;;;;1.67;1.00;;;;;;;;5099967;27;46130;-73
2023/12/31 13:53:57;;;;;;;;;1.00;0.00;;;;;;;;5099955;27;45356;-73
2023/12/31 13:56:23;;;;;;;;;3.67;2.00;;;;;;;;5100154;27;45249;-73
2023/12/31 13:58:48;;;;;;;;;7.00;6.67;;;;;;;;5100566;27;45239;-73
2023/12/31 14:01:14;;;;;;;;;1.00;1.00;;;;;;;;5099943;27;46155;-73
2023/12/31 14:03:40;;;;;;;;;2.00;1.00;;;;;;;;5099964;27;45298;-73
2023/12/31 14:06:05;;;;;;;;;8.00;6.00;;;;;;;;5099846;27;45408;-73
2023/12/31 14:08:31;;;;;;;;;4.67;4.00;;;;;;;;5099095;27;45470;-73
2023/12/31 14:10:56;;;;;;;;;2.00;2.00;;;;;;;;5099593;27;45342;-72
2023/12/31 14:13:21;;;;;;;;;3.00;2.00;;;;;;;;5100000;27;45398;-73
2023/12/31 14:15:47;;;;;;;;;2.67;2.67;;;;;;;;5099788;27;45551;-73
2023/12/31 14:18:12;;;;;;;;;1.67;1.33;;;;;;;;5100060;27;45460;-73
2023/12/31 14:20:37;;;;;;;;;2.00;1.00;;;;;;;;5099281;27;46168;-73
2023/12/31 14:23:03;;;;;;;;;3.00;3.00;;;;;;;;5099508;27;45406;-72
2023/12/31 14:25:28;;;;;;;;;4.50;4.00;;;;;;;;5080851;27;45433;-73
2023/12/31 14:27:54;;;;;;;;;3.00;1.00;;;;;;;;5099578;27;45274;-73
2023/12/31 14:30:20;;;;;;;;;3.00;1.33;;;;;;;;5099417;27;45307;-73
2023/12/31 14:32:46;;;;;;;;;8.33;4.33;;;;;;;;5099054;27;45331;-72
2023/12/31 14:35:11;;;;;;;;;4.33;3.00;;;;;;;;5099021;27;45329;-73